createdAt,value
2023-01-21T00:01:45.711Z,23.13
2023-01-21T00:04:14.797Z,23.97
2023-01-21T00:06:47.601Z,24.00
2023-01-21T00:09:17.993Z,23.47
2023-01-21T00:11:46.926Z,23.60
2023-01-21T00:14:16.736Z,23.73
2023-01-21T00:17:07.642Z,23.80
2023-01-21T00:20:16.359Z,25.37
2023-01-21T00:23:07.444Z,25.37
2023-01-21T00:25:37.863Z,22.20
2023-01-21T00:28:06.229Z,24.03
2023-01-21T00:30:34.599Z,22.37
2023-01-21T00:33:04.713Z,23.53
2023-01-21T00:35:36.123Z,22.83
2023-01-21T00:38:15.425Z,22.87
2023-01-21T00:40:44.992Z,23.10
2023-01-21T00:43:13.979Z,22.93
2023-01-21T00:45:44.838Z,24.30
2023-01-21T00:48:13.090Z,22.27
2023-01-21T00:50:41.447Z,24.47
2023-01-21T00:53:10.157Z,23.80
2023-01-21T00:55:38.193Z,23.17
2023-01-21T00:58:07.682Z,23.00
2023-01-21T01:00:37.481Z,23.23
2023-01-21T01:03:05.643Z,25.43
2023-01-21T01:05:34.954Z,24.63
2023-01-21T01:08:02.921Z,24.43
2023-01-21T01:10:30.913Z,24.90
2023-01-21T01:13:02.146Z,24.23
2023-01-21T01:15:31.829Z,24.97
2023-01-21T01:18:00.161Z,24.40
2023-01-21T01:20:28.245Z,23.33
2023-01-21T01:22:59.049Z,23.87
2023-01-21T01:25:28.829Z,25.57
2023-01-21T01:27:56.910Z,23.13
2023-01-21T01:30:25.579Z,26.40
2023-01-21T01:32:55.604Z,25.33
2023-01-21T01:35:25.078Z,24.50
2023-01-21T01:37:53.586Z,24.30
2023-01-21T01:40:22.067Z,24.77
2023-01-21T01:42:50.378Z,24.50
2023-01-21T01:45:22.263Z,24.30
2023-01-21T01:48:01.236Z,25.30
2023-01-21T01:50:35.598Z,23.37
2023-01-21T01:53:05.085Z,24.87
2023-01-21T01:55:38.341Z,23.57
2023-01-21T01:58:11.732Z,24.63
2023-01-21T02:00:40.523Z,24.70
2023-01-21T02:03:27.908Z,25.50
2023-01-21T02:05:57.727Z,24.67
2023-01-21T02:08:27.300Z,24.23
2023-01-21T02:10:56.389Z,24.13
2023-01-21T02:13:27.277Z,24.33
2023-01-21T02:16:09.496Z,25.97
2023-01-21T02:18:46.797Z,25.27
2023-01-21T02:21:55.279Z,25.93
2023-01-21T02:25:13.825Z,24.63
2023-01-21T02:27:55.950Z,24.37
2023-01-21T02:30:57.436Z,23.57
2023-01-21T02:33:54.718Z,26.07
2023-01-21T02:36:53.233Z,26.97
2023-01-21T02:39:37.853Z,25.93
2023-01-21T02:42:10.439Z,23.30
2023-01-21T02:44:45.787Z,24.40
2023-01-21T02:47:25.130Z,24.47
2023-01-21T02:50:23.401Z,24.37
2023-01-21T02:52:59.881Z,24.63
2023-01-21T02:55:32.304Z,25.50
2023-01-21T02:58:04.341Z,25.87
2023-01-21T03:00:49.696Z,22.47
2023-01-21T03:03:41.066Z,24.47
2023-01-21T03:06:39.540Z,26.03
2023-01-21T03:09:30.728Z,24.93
2023-01-21T03:12:10.285Z,25.40
2023-01-21T03:15:02.028Z,22.70
2023-01-21T03:17:41.971Z,25.37
2023-01-21T03:20:14.613Z,26.17
2023-01-21T03:22:46.779Z,26.53
2023-01-21T03:25:19.140Z,23.80
2023-01-21T03:27:49.080Z,25.60
2023-01-21T03:30:19.740Z,24.13
2023-01-21T03:32:54.265Z,22.67
2023-01-21T03:35:31.735Z,24.23
2023-01-21T03:38:06.812Z,23.97
2023-01-21T03:40:42.005Z,23.70
2023-01-21T03:43:12.075Z,25.07
2023-01-21T03:45:50.515Z,25.53
2023-01-21T03:48:25.362Z,24.87
2023-01-21T03:51:00.327Z,24.90
2023-01-21T03:53:31.800Z,23.93
2023-01-21T03:56:01.348Z,22.30
2023-01-21T03:58:30.500Z,22.67
2023-01-21T04:00:58.573Z,24.40
2023-01-21T04:03:28.035Z,24.60
2023-01-21T04:05:58.737Z,23.77
2023-01-21T04:08:26.913Z,23.67
2023-01-21T04:10:56.362Z,24.17
2023-01-21T04:13:25.841Z,25.23
2023-01-21T04:15:57.645Z,24.17
2023-01-21T04:18:26.824Z,22.90
2023-01-21T04:20:55.142Z,23.37
2023-01-21T04:23:24.279Z,25.07
2023-01-21T04:25:53.083Z,22.73
2023-01-21T04:28:22.893Z,24.50
2023-01-21T04:30:51.221Z,23.13
2023-01-21T04:33:19.379Z,24.37
2023-01-21T04:35:50.765Z,24.13
2023-01-21T04:38:19.706Z,24.10
2023-01-21T04:40:47.790Z,23.77
2023-01-21T04:43:16.968Z,23.60
2023-01-21T04:45:50.108Z,22.90
2023-01-21T04:48:19.918Z,23.77
2023-01-21T04:50:50.983Z,23.03
2023-01-21T04:53:19.037Z,23.27
2023-01-21T04:55:52.823Z,24.10
2023-01-21T04:58:21.486Z,23.27
2023-01-21T05:00:53.763Z,24.07
2023-01-21T05:03:22.425Z,23.33
2023-01-21T05:05:52.609Z,23.83
2023-01-21T05:08:21.498Z,22.60
2023-01-21T05:10:54.914Z,23.33
2023-01-21T05:13:22.949Z,22.13
2023-01-21T05:15:53.918Z,21.90
2023-01-21T05:18:23.729Z,22.53
2023-01-21T05:20:51.753Z,23.03
2023-01-21T05:23:22.314Z,22.23
2023-01-21T05:25:51.686Z,22.70
2023-01-21T05:28:20.354Z,22.43
2023-01-21T05:30:49.617Z,22.03
2023-01-21T05:33:23.928Z,21.93
2023-01-21T05:35:53.118Z,24.07
2023-01-21T05:38:21.097Z,22.80
2023-01-21T05:40:49.087Z,22.77
2023-01-21T05:43:19.067Z,22.93
2023-01-21T05:45:49.036Z,22.10
2023-01-21T05:48:19.513Z,21.10
2023-01-21T05:50:48.423Z,21.57
2023-01-21T05:53:16.707Z,23.10
2023-01-21T05:55:45.146Z,22.83
2023-01-21T05:58:14.326Z,22.90
2023-01-21T06:00:45.294Z,22.90
2023-01-21T06:03:14.543Z,23.13
2023-01-21T06:05:43.889Z,20.57
2023-01-21T06:08:12.214Z,21.30
2023-01-21T06:10:40.464Z,20.37
2023-01-21T06:13:08.558Z,22.40
2023-01-21T06:15:36.574Z,21.70
2023-01-21T06:18:04.810Z,22.37
2023-01-21T06:20:32.962Z,22.30
2023-01-21T06:23:03.275Z,21.40
2023-01-21T06:25:32.046Z,21.67
2023-01-21T06:28:01.159Z,21.37
2023-01-21T06:30:29.270Z,22.43
2023-01-21T06:32:57.278Z,20.97
2023-01-21T06:35:25.238Z,22.90
2023-01-21T06:37:53.213Z,21.27
2023-01-21T06:40:22.648Z,21.47
2023-01-21T06:42:50.990Z,22.43
2023-01-21T06:45:19.144Z,21.10
2023-01-21T06:47:47.644Z,21.73
2023-01-21T06:50:18.527Z,22.27
2023-01-21T06:52:48.655Z,21.90
2023-01-21T06:55:17.772Z,21.33
2023-01-21T06:57:47.417Z,21.67
2023-01-21T07:00:16.261Z,23.10
2023-01-21T07:02:44.464Z,23.27
2023-01-21T07:05:14.943Z,23.57
2023-01-21T07:07:43.257Z,22.30
2023-01-21T07:10:12.805Z,21.77
2023-01-21T07:12:40.970Z,21.93
2023-01-21T07:15:11.375Z,21.70
2023-01-21T07:17:39.413Z,23.00
2023-01-21T07:20:11.168Z,21.77
2023-01-21T07:22:39.412Z,23.23
2023-01-21T07:25:11.105Z,22.63
2023-01-21T07:27:39.071Z,22.57
2023-01-21T07:30:08.407Z,23.13
2023-01-21T07:32:37.764Z,22.43
2023-01-21T07:35:06.393Z,20.63
2023-01-21T07:37:34.322Z,20.80
2023-01-21T07:40:02.319Z,22.43
2023-01-21T07:42:30.303Z,23.00
2023-01-21T07:44:59.740Z,23.73
2023-01-21T07:47:27.755Z,24.03
2023-01-21T07:49:57.079Z,23.23
2023-01-21T07:52:25.438Z,23.10
2023-01-21T07:54:53.439Z,23.23
2023-01-21T07:57:21.483Z,22.57
2023-01-21T07:59:49.709Z,23.43
2023-01-21T08:02:17.738Z,22.70
2023-01-21T08:04:45.756Z,22.97
2023-01-21T08:07:15.364Z,23.77
2023-01-21T08:09:43.373Z,23.93
2023-01-21T08:12:11.620Z,24.80
2023-01-21T08:14:39.646Z,24.33
2023-01-21T08:17:07.780Z,24.87
2023-01-21T08:19:35.705Z,25.00
2023-01-21T08:22:03.757Z,24.13
2023-01-21T08:24:33.071Z,25.90
2023-01-21T08:27:01.413Z,25.60
2023-01-21T08:29:29.414Z,24.23
2023-01-21T08:31:58.454Z,25.90
2023-01-21T08:34:26.501Z,25.80
2023-01-21T08:36:54.958Z,24.90
2023-01-21T08:39:22.935Z,25.70
2023-01-21T08:41:52.280Z,25.23
2023-01-21T08:44:20.313Z,25.80
2023-01-21T08:46:48.448Z,25.90
2023-01-21T08:49:16.512Z,26.63
2023-01-21T08:51:44.553Z,25.27
2023-01-21T08:54:12.495Z,26.37
2023-01-21T08:56:40.565Z,25.50
2023-01-21T08:59:11.112Z,25.30
2023-01-21T09:01:40.977Z,25.07
2023-01-21T09:04:09.754Z,26.80
2023-01-21T09:06:37.730Z,25.87
2023-01-21T09:09:05.713Z,24.50
2023-01-21T09:11:34.694Z,27.17
2023-01-21T09:14:04.113Z,25.13
2023-01-21T09:16:33.925Z,26.43
2023-01-21T09:19:02.352Z,26.13
2023-01-21T09:21:30.627Z,27.27
2023-01-21T09:23:58.763Z,26.93
2023-01-21T09:26:27.254Z,26.83
2023-01-21T09:28:57.299Z,25.60
2023-01-21T09:31:27.060Z,26.37
2023-01-21T09:33:58.396Z,24.33
2023-01-21T09:36:28.139Z,25.23
2023-01-21T09:38:56.189Z,25.93
2023-01-21T09:41:27.347Z,25.90
2023-01-21T09:44:08.677Z,25.10
2023-01-21T09:46:42.365Z,25.70
2023-01-21T09:49:17.138Z,25.30
2023-01-21T09:51:52.731Z,25.53
2023-01-21T09:54:27.343Z,26.30
2023-01-21T09:57:28.407Z,26.80
2023-01-21T10:00:17.971Z,26.27
2023-01-21T10:02:54.646Z,25.40
2023-01-21T10:05:51.427Z,25.27
2023-01-21T10:08:28.061Z,25.13
2023-01-21T10:11:03.978Z,26.70
2023-01-21T10:13:45.432Z,25.77
2023-01-21T10:16:21.992Z,25.33
2023-01-21T10:18:53.638Z,25.50
2023-01-21T10:21:33.163Z,28.17
2023-01-21T10:24:05.597Z,27.97
2023-01-21T10:26:35.926Z,26.97
2023-01-21T10:29:04.674Z,27.13
2023-01-21T10:31:40.455Z,27.37
2023-01-21T10:34:14.046Z,26.60
2023-01-21T10:36:58.564Z,29.27
2023-01-21T10:39:35.144Z,30.50
2023-01-21T10:42:18.036Z,30.63
2023-01-21T10:44:54.274Z,29.13
2023-01-21T10:47:33.547Z,32.70
2023-01-21T10:50:12.395Z,31.13
2023-01-21T10:52:47.377Z,29.40
2023-01-21T10:55:27.965Z,29.47
2023-01-21T10:58:02.422Z,28.20
2023-01-21T11:00:35.033Z,28.17
2023-01-21T11:03:09.319Z,29.87
2023-01-21T11:05:39.661Z,30.10
2023-01-21T11:08:18.271Z,28.90
2023-01-21T11:10:48.001Z,30.77
2023-01-21T11:13:16.056Z,29.00
2023-01-21T11:15:48.600Z,28.93
2023-01-21T11:18:30.617Z,30.13
2023-01-21T11:21:00.608Z,28.27
2023-01-21T11:23:32.257Z,28.03
2023-01-21T11:26:05.883Z,29.00
2023-01-21T11:28:34.541Z,28.60
2023-01-21T11:31:11.895Z,26.53
2023-01-21T11:33:41.232Z,25.47
2023-01-21T11:36:17.594Z,24.33
2023-01-21T11:38:49.187Z,24.00
2023-01-21T11:41:21.226Z,20.50
2023-01-21T11:43:51.602Z,22.63
2023-01-21T11:46:38.519Z,24.90
2023-01-21T11:49:28.687Z,19.77
2023-01-21T11:52:19.228Z,20.97
2023-01-21T11:54:49.176Z,19.07
2023-01-21T11:57:29.098Z,19.23
2023-01-21T12:00:01.477Z,20.07
2023-01-21T12:02:32.981Z,18.23
2023-01-21T12:05:05.632Z,18.20
2023-01-21T12:07:36.229Z,20.10
2023-01-21T12:10:17.084Z,19.10
2023-01-21T12:13:05.085Z,20.07
2023-01-21T12:15:53.842Z,20.10
2023-01-21T12:18:38.156Z,19.63
2023-01-21T12:21:11.679Z,21.07
2023-01-21T12:23:57.858Z,20.13
2023-01-21T12:26:40.090Z,19.70
2023-01-21T12:29:44.873Z,20.07
2023-01-21T12:32:19.332Z,20.00
2023-01-21T12:34:51.991Z,19.70
2023-01-21T12:37:25.228Z,20.53
2023-01-21T12:39:56.709Z,18.57
2023-01-21T12:42:34.082Z,19.03
2023-01-21T12:45:05.636Z,18.80
2023-01-21T12:47:40.110Z,20.43
2023-01-21T12:50:22.312Z,18.53
2023-01-21T12:53:04.965Z,18.03
2023-01-21T12:55:44.837Z,19.33
2023-01-21T12:58:17.135Z,19.20
2023-01-21T13:00:49.635Z,18.07
2023-01-21T13:03:27.740Z,20.30
2023-01-21T13:06:01.651Z,18.70
2023-01-21T13:08:55.747Z,17.77
2023-01-21T13:11:28.859Z,19.40
2023-01-21T13:14:18.457Z,18.53
2023-01-21T13:16:51.829Z,20.30
2023-01-21T13:19:19.790Z,20.00
2023-01-21T13:21:52.978Z,19.90
2023-01-21T13:24:29.798Z,18.57
2023-01-21T13:27:07.201Z,19.20
2023-01-21T13:29:45.874Z,20.00
2023-01-21T13:32:23.809Z,19.23
2023-01-21T13:34:59.089Z,19.23
2023-01-21T13:37:36.921Z,19.80
2023-01-21T13:40:26.802Z,19.40
2023-01-21T13:43:06.686Z,18.60
2023-01-21T13:45:45.965Z,19.23
2023-01-21T13:48:32.173Z,19.10
2023-01-21T13:51:16.399Z,16.77
2023-01-21T13:54:11.441Z,16.27
2023-01-21T13:56:55.560Z,19.53
2023-01-21T13:59:30.231Z,16.90
2023-01-21T14:02:03.084Z,15.77
2023-01-21T14:04:36.411Z,16.40
2023-01-21T14:07:13.489Z,14.53
2023-01-21T14:09:46.638Z,16.30
2023-01-21T14:12:21.837Z,15.93
2023-01-21T14:15:24.874Z,17.57
2023-01-21T14:18:17.399Z,16.77
2023-01-21T14:21:14.909Z,17.10
2023-01-21T14:24:19.946Z,17.40
2023-01-21T14:27:04.794Z,13.93
2023-01-21T14:29:38.279Z,16.50
2023-01-21T14:32:14.320Z,16.60
2023-01-21T14:34:50.743Z,15.57
2023-01-21T14:37:25.437Z,14.90
2023-01-21T14:40:05.737Z,15.40
2023-01-21T14:42:45.413Z,16.63
2023-01-21T14:45:15.100Z,17.57
2023-01-21T14:47:53.665Z,18.57
2023-01-21T14:50:51.819Z,19.27
2023-01-21T14:53:24.698Z,18.20
2023-01-21T14:56:20.012Z,18.67
2023-01-21T14:58:50.385Z,18.43
2023-01-21T15:01:38.054Z,18.70
2023-01-21T15:04:09.448Z,18.67
2023-01-21T15:06:41.105Z,19.60
2023-01-21T15:09:17.419Z,18.70
2023-01-21T15:11:45.662Z,19.20
2023-01-21T15:14:16.792Z,18.17
2023-01-21T15:16:46.741Z,19.30
2023-01-21T15:19:29.276Z,16.90
2023-01-21T15:22:46.633Z,18.03
2023-01-21T15:25:31.499Z,17.50
2023-01-21T15:28:33.336Z,19.53
2023-01-21T15:31:04.158Z,17.47
2023-01-21T15:33:36.642Z,18.13
2023-01-21T15:36:06.337Z,18.37
2023-01-21T15:38:41.486Z,19.20
2023-01-21T15:41:22.163Z,19.20
2023-01-21T15:43:59.589Z,18.67
2023-01-21T15:46:36.019Z,16.90
2023-01-21T15:49:16.918Z,18.47
2023-01-21T15:51:54.421Z,19.30
2023-01-21T15:54:33.275Z,19.17
2023-01-21T15:57:24.838Z,19.07
2023-01-21T16:00:08.176Z,20.33
2023-01-21T16:02:46.806Z,20.17
2023-01-21T16:05:29.078Z,19.20
2023-01-21T16:08:08.614Z,18.63
2023-01-21T16:10:45.816Z,19.53
2023-01-21T16:13:20.975Z,19.60
2023-01-21T16:16:01.616Z,20.53
2023-01-21T16:18:33.817Z,20.77
2023-01-21T16:21:04.461Z,21.33
2023-01-21T16:23:37.592Z,25.88
2023-01-21T16:26:07.365Z,19.33
2023-01-21T16:28:43.223Z,19.00
2023-01-21T16:31:11.859Z,17.20
2023-01-21T16:33:39.935Z,17.23
2023-01-21T16:36:09.683Z,16.03
2023-01-21T16:38:38.831Z,17.37
2023-01-21T16:41:29.605Z,18.10
2023-01-21T16:44:01.146Z,18.47
2023-01-21T16:46:34.886Z,17.27
2023-01-21T16:49:05.385Z,18.87
2023-01-21T16:51:36.095Z,17.80
2023-01-21T16:54:26.054Z,17.17
2023-01-21T16:56:58.182Z,18.63
2023-01-21T16:59:31.704Z,17.73
2023-01-21T17:02:00.850Z,18.47
2023-01-21T17:04:30.290Z,19.67
2023-01-21T17:06:59.365Z,20.87
2023-01-21T17:09:31.271Z,19.93
2023-01-21T17:12:09.522Z,19.53
2023-01-21T17:14:38.452Z,20.37
2023-01-21T17:17:09.915Z,20.50
2023-01-21T17:19:39.715Z,19.80
2023-01-21T17:22:15.034Z,19.73
2023-01-21T17:25:00.716Z,19.90
2023-01-21T17:27:30.797Z,20.60
2023-01-21T17:30:26.426Z,19.37
2023-01-21T17:32:55.777Z,20.00
2023-01-21T17:35:24.959Z,17.53
2023-01-21T17:37:55.280Z,16.53
2023-01-21T17:40:28.753Z,16.17
2023-01-21T17:42:59.465Z,18.33
2023-01-21T17:45:34.187Z,14.67
2023-01-21T17:48:10.117Z,14.83
2023-01-21T17:50:47.197Z,16.50
2023-01-21T17:53:22.642Z,18.70
2023-01-21T17:55:58.954Z,17.73
2023-01-21T17:58:49.478Z,18.90
2023-01-21T18:01:18.640Z,19.00
2023-01-21T18:03:46.798Z,20.40
2023-01-21T18:06:19.041Z,18.53
2023-01-21T18:08:47.216Z,20.00
2023-01-21T18:11:17.707Z,19.00
2023-01-21T18:13:47.551Z,19.67
2023-01-21T18:16:15.594Z,20.17
2023-01-21T18:18:43.663Z,17.57
2023-01-21T18:21:20.304Z,18.50
2023-01-21T18:23:48.872Z,19.87
2023-01-21T18:26:23.960Z,20.07
2023-01-21T18:28:53.446Z,18.07
2023-01-21T18:31:22.658Z,29.57
2023-01-21T18:33:50.982Z,23.10
2023-01-21T18:36:19.020Z,19.37
2023-01-21T18:38:47.096Z,19.43
2023-01-21T18:41:15.134Z,19.17
2023-01-21T18:43:43.212Z,18.57
2023-01-21T18:46:14.302Z,18.97
2023-01-21T18:48:42.974Z,19.93
2023-01-21T18:51:11.506Z,19.83
2023-01-21T18:53:39.804Z,20.80
2023-01-21T18:56:13.759Z,20.87
2023-01-21T18:58:41.931Z,19.90
2023-01-21T19:01:21.746Z,19.17
2023-01-21T19:03:57.708Z,21.73
2023-01-21T19:06:27.106Z,21.80
2023-01-21T19:08:56.087Z,20.10
2023-01-21T19:11:24.448Z,21.10
2023-01-21T19:13:55.153Z,20.93
2023-01-21T19:16:23.455Z,23.60
2023-01-21T19:18:57.337Z,23.50
2023-01-21T19:21:25.547Z,20.90
2023-01-21T19:23:54.185Z,22.10
2023-01-21T19:26:23.373Z,22.40
2023-01-21T19:28:51.832Z,21.73
2023-01-21T19:31:20.294Z,21.37
2023-01-21T19:33:49.003Z,21.10
2023-01-21T19:36:20.540Z,20.63
2023-01-21T19:38:54.364Z,19.53
2023-01-21T19:41:22.510Z,23.77
2023-01-21T19:43:50.944Z,22.23
2023-01-21T19:46:20.041Z,21.53
2023-01-21T19:48:50.348Z,23.33
2023-01-21T19:51:20.182Z,22.97
2023-01-21T19:53:48.280Z,23.27
2023-01-21T19:56:23.443Z,23.73
2023-01-21T19:58:52.037Z,23.83
2023-01-21T20:01:20.179Z,24.30
2023-01-21T20:03:59.821Z,20.73
2023-01-21T20:06:34.115Z,21.07
2023-01-21T20:09:02.622Z,22.83
2023-01-21T20:11:35.174Z,22.03
2023-01-21T20:14:03.592Z,21.47
2023-01-21T20:16:32.745Z,23.13
2023-01-21T20:19:04.199Z,21.40
2023-01-21T20:21:35.041Z,21.77
2023-01-21T20:24:04.525Z,24.30
2023-01-21T20:26:33.125Z,25.17
2023-01-21T20:29:03.700Z,24.57
2023-01-21T20:31:32.209Z,25.27
2023-01-21T20:34:00.525Z,24.27
2023-01-21T20:36:29.006Z,24.00
2023-01-21T20:38:59.257Z,22.30
2023-01-21T20:41:27.499Z,22.27
2023-01-21T20:43:55.900Z,24.00
2023-01-21T20:46:31.037Z,23.20
2023-01-21T20:48:59.850Z,24.90
2023-01-21T20:51:28.478Z,23.73
2023-01-21T20:53:58.164Z,22.97
2023-01-21T20:56:28.847Z,22.03
2023-01-21T20:58:57.721Z,23.63
2023-01-21T21:01:27.664Z,23.07
2023-01-21T21:03:55.949Z,22.07
2023-01-21T21:06:26.919Z,22.37
2023-01-21T21:08:55.185Z,27.33
2023-01-21T21:11:24.716Z,22.90
2023-01-21T21:13:52.932Z,24.47
2023-01-21T21:16:23.866Z,23.13
2023-01-21T21:18:52.531Z,25.53
2023-01-21T21:21:24.032Z,24.63
2023-01-21T21:23:53.057Z,23.47
2023-01-21T21:26:23.184Z,23.87
2023-01-21T21:28:55.329Z,24.93
2023-01-21T21:31:24.326Z,23.60
2023-01-21T21:33:52.726Z,23.93
2023-01-21T21:36:24.131Z,24.13
2023-01-21T21:38:55.943Z,23.83
2023-01-21T21:41:43.794Z,24.07
2023-01-21T21:44:13.629Z,23.53
2023-01-21T21:46:59.783Z,23.13
2023-01-21T21:49:29.091Z,21.73
2023-01-21T21:51:59.739Z,21.63
2023-01-21T21:54:28.052Z,22.40
2023-01-21T21:56:56.173Z,21.90
2023-01-21T21:59:25.831Z,22.57
2023-01-21T22:01:53.778Z,22.60
2023-01-21T22:04:23.566Z,24.30
2023-01-21T22:06:51.671Z,23.90
2023-01-21T22:09:19.866Z,23.07
2023-01-21T22:11:47.878Z,22.23
2023-01-21T22:14:16.184Z,22.63
2023-01-21T22:16:45.811Z,21.70
2023-01-21T22:19:13.801Z,20.77
2023-01-21T22:21:41.920Z,20.77
2023-01-21T22:24:11.224Z,21.50
2023-01-21T22:26:39.355Z,21.07
2023-01-21T22:29:07.836Z,19.67
2023-01-21T22:31:36.314Z,18.20
2023-01-21T22:34:05.690Z,19.03
2023-01-21T22:36:34.172Z,19.30
2023-01-21T22:39:02.184Z,20.23
2023-01-21T22:41:30.388Z,18.13
2023-01-21T22:43:58.984Z,19.10
2023-01-21T22:46:30.058Z,17.47
2023-01-21T22:48:58.473Z,17.93
2023-01-21T22:51:28.562Z,17.40
2023-01-21T22:53:57.293Z,17.67
2023-01-21T22:56:45.064Z,16.90
2023-01-21T22:59:14.359Z,17.73
2023-01-21T23:01:42.666Z,16.73
2023-01-21T23:04:11.537Z,16.27
2023-01-21T23:06:41.047Z,16.07
2023-01-21T23:09:11.507Z,15.23
2023-01-21T23:11:39.844Z,16.17
2023-01-21T23:14:09.776Z,16.07
2023-01-21T23:16:37.847Z,16.27
2023-01-21T23:19:05.857Z,14.73
2023-01-21T23:21:33.942Z,15.17
2023-01-21T23:24:03.402Z,14.13
2023-01-21T23:26:32.205Z,13.53
2023-01-21T23:29:00.138Z,14.40
2023-01-21T23:31:28.215Z,15.10
2023-01-21T23:33:57.239Z,15.30
2023-01-21T23:36:25.379Z,15.43
2023-01-21T23:38:53.382Z,15.30
2023-01-21T23:41:22.833Z,15.17
2023-01-21T23:43:50.894Z,14.40
2023-01-21T23:46:20.354Z,15.67
2023-01-21T23:48:48.566Z,15.20
2023-01-21T23:51:18.388Z,14.63
2023-01-21T23:53:47.647Z,14.17
2023-01-21T23:56:17.539Z,14.77
2023-01-21T23:58:46.832Z,15.00
